createdAt,value
2017-05-12T00:03:18.000Z,59.6
2017-05-12T00:20:06.000Z,59.6
2017-05-12T00:36:53.000Z,59.6
2017-05-12T00:53:42.000Z,59.6
2017-05-12T01:10:29.000Z,59.6
2017-05-12T01:27:17.000Z,59.6
2017-05-12T01:44:04.000Z,59.6
2017-05-12T02:00:52.000Z,59.2
2017-05-12T02:17:40.000Z,59.2
2017-05-12T02:34:27.000Z,59.2
2017-05-12T02:51:14.000Z,59.2
2017-05-12T03:08:02.000Z,59.2
2017-05-12T03:24:49.000Z,59.2
2017-05-12T03:41:37.000Z,59.2
2017-05-12T03:58:24.000Z,59.2
2017-05-12T04:15:11.000Z,59.2
2017-05-12T04:31:58.000Z,59.2
2017-05-12T04:48:45.000Z,59.2
2017-05-12T05:05:33.000Z,59.2
2017-05-12T05:22:20.000Z,59.2
2017-05-12T05:39:07.000Z,59.2
2017-05-12T05:55:54.000Z,58.8
2017-05-12T06:12:42.000Z,58.8
2017-05-12T06:29:29.000Z,59.2
2017-05-12T06:46:16.000Z,59.2
2017-05-12T07:03:03.000Z,59.2
2017-05-12T07:19:50.000Z,59.2
2017-05-12T07:36:38.000Z,59.2
2017-05-12T07:53:26.000Z,59.2
2017-05-12T08:10:13.000Z,59.6
2017-05-12T08:27:01.000Z,59.6
2017-05-12T08:43:48.000Z,59.6
2017-05-12T09:00:37.000Z,58.8
2017-05-12T09:17:24.000Z,58.8
2017-05-12T09:34:11.000Z,59.2
2017-05-12T09:51:00.000Z,60
2017-05-12T10:07:48.000Z,60.8
2017-05-12T10:24:36.000Z,60.8
2017-05-12T10:41:24.000Z,61.6
2017-05-12T10:58:12.000Z,61.6
2017-05-12T11:15:01.000Z,61.2
2017-05-12T11:31:49.000Z,60.8
2017-05-12T11:46:58.000Z,60.4
2017-05-12T12:03:47.000Z,59.6
2017-05-12T12:20:36.000Z,59.6
2017-05-12T12:37:25.000Z,59.2
2017-05-12T12:54:15.000Z,59.2
2017-05-12T13:11:04.000Z,59.6
2017-05-12T13:44:42.000Z,60.4
2017-05-12T14:01:31.000Z,60.4
2017-05-12T14:18:20.000Z,60
2017-05-12T14:35:09.000Z,60
2017-05-12T14:51:59.000Z,60
2017-05-12T15:08:48.000Z,60
2017-05-12T15:25:37.000Z,60
2017-05-12T15:42:26.000Z,60
2017-05-12T15:59:16.000Z,60
2017-05-12T16:16:05.000Z,60
2017-05-12T16:32:55.000Z,60.4
2017-05-12T16:49:44.000Z,60.8
2017-05-12T17:06:34.000Z,60.8
2017-05-12T17:23:22.000Z,60.8
2017-05-12T17:40:12.000Z,60.8
2017-05-12T17:57:01.000Z,61.2
2017-05-12T18:13:50.000Z,62
2017-05-12T18:30:40.000Z,62.4
2017-05-12T18:47:29.000Z,62.8
2017-05-12T19:04:18.000Z,63.6
2017-05-12T19:21:07.000Z,63.6
2017-05-12T19:37:57.000Z,64
2017-05-12T19:54:46.000Z,64
2017-05-12T20:11:35.000Z,64.4
2017-05-12T20:28:23.000Z,64.4
2017-05-12T20:45:12.000Z,64.4
2017-05-12T21:02:02.000Z,64.8
2017-05-12T21:18:51.000Z,64.8
2017-05-12T21:35:39.000Z,64.8
2017-05-12T21:52:27.000Z,64.8
2017-05-12T22:09:15.000Z,64.8
2017-05-12T22:26:04.000Z,64.8
2017-05-12T22:42:52.000Z,64.8
2017-05-12T22:59:39.000Z,64.4
2017-05-12T23:16:27.000Z,64.4
2017-05-12T23:33:14.000Z,64.4
2017-05-12T23:50:03.000Z,64
